sensor_id;sensor_type;location;lat;lon;timestamp;temperature;humidity
6379;DHT22;3222;48.858;10.128;2023-08-06T00:00:22;15.80;99.90
6379;DHT22;3222;48.858;10.128;2023-08-06T00:02:48;15.70;99.90
6379;DHT22;3222;48.858;10.128;2023-08-06T00:05:14;15.70;99.90
6379;DHT22;3222;48.858;10.128;2023-08-06T00:07:44;15.70;99.90
6379;DHT22;3222;48.858;10.128;2023-08-06T00:10:10;15.70;99.90
6379;DHT22;3222;48.858;10.128;2023-08-06T00:12:36;15.70;99.90
6379;DHT22;3222;48.858;10.128;2023-08-06T00:15:02;15.70;99.90
6379;DHT22;3222;48.858;10.128;2023-08-06T00:17:27;15.70;99.90
6379;DHT22;3222;48.858;10.128;2023-08-06T00:19:53;15.70;99.90
6379;DHT22;3222;48.858;10.128;2023-08-06T00:22:19;15.70;99.90
6379;DHT22;3222;48.858;10.128;2023-08-06T00:24:44;15.70;99.90
6379;DHT22;3222;48.858;10.128;2023-08-06T00:27:10;15.70;99.90
6379;DHT22;3222;48.858;10.128;2023-08-06T00:29:35;15.70;99.90
6379;DHT22;3222;48.858;10.128;2023-08-06T00:32:01;15.70;99.90
6379;DHT22;3222;48.858;10.128;2023-08-06T00:34:27;15.70;99.90
6379;DHT22;3222;48.858;10.128;2023-08-06T00:36:52;15.70;99.90
6379;DHT22;3222;48.858;10.128;2023-08-06T00:39:19;15.70;99.90
6379;DHT22;3222;48.858;10.128;2023-08-06T00:41:45;15.70;99.90
6379;DHT22;3222;48.858;10.128;2023-08-06T00:44:11;15.80;99.90
6379;DHT22;3222;48.858;10.128;2023-08-06T00:46:37;15.80;99.90
6379;DHT22;3222;48.858;10.128;2023-08-06T00:49:03;15.70;99.90
6379;DHT22;3222;48.858;10.128;2023-08-06T00:51:29;15.70;99.90
6379;DHT22;3222;48.858;10.128;2023-08-06T00:53:56;15.70;99.90
6379;DHT22;3222;48.858;10.128;2023-08-06T00:56:22;15.60;99.90
6379;DHT22;3222;48.858;10.128;2023-08-06T00:58:48;15.60;99.90
6379;DHT22;3222;48.858;10.128;2023-08-06T01:01:14;15.60;99.90
6379;DHT22;3222;48.858;10.128;2023-08-06T01:03:40;15.60;99.90
6379;DHT22;3222;48.858;10.128;2023-08-06T01:06:05;15.70;99.90
6379;DHT22;3222;48.858;10.128;2023-08-06T01:08:46;15.70;99.90
6379;DHT22;3222;48.858;10.128;2023-08-06T01:11:35;15.70;99.90
6379;DHT22;3222;48.858;10.128;2023-08-06T01:16:37;15.60;99.90
6379;DHT22;3222;48.858;10.128;2023-08-06T01:19:05;15.60;99.90
6379;DHT22;3222;48.858;10.128;2023-08-06T01:21:40;15.60;99.90
6379;DHT22;3222;48.858;10.128;2023-08-06T01:24:06;15.60;99.90
6379;DHT22;3222;48.858;10.128;2023-08-06T01:26:51;15.50;99.90
6379;DHT22;3222;48.858;10.128;2023-08-06T01:29:43;15.50;99.90
6379;DHT22;3222;48.858;10.128;2023-08-06T01:32:11;15.70;99.90
6379;DHT22;3222;48.858;10.128;2023-08-06T01:34:39;15.60;99.90
6379;DHT22;3222;48.858;10.128;2023-08-06T01:37:06;15.60;99.90
6379;DHT22;3222;48.858;10.128;2023-08-06T01:39:34;15.70;99.90
6379;DHT22;3222;48.858;10.128;2023-08-06T01:42:02;15.60;99.90
6379;DHT22;3222;48.858;10.128;2023-08-06T01:44:29;15.60;99.90
6379;DHT22;3222;48.858;10.128;2023-08-06T01:46:54;15.60;99.90
6379;DHT22;3222;48.858;10.128;2023-08-06T01:49:20;15.60;99.90
6379;DHT22;3222;48.858;10.128;2023-08-06T01:51:46;15.60;99.90
6379;DHT22;3222;48.858;10.128;2023-08-06T01:54:12;15.60;99.90
6379;DHT22;3222;48.858;10.128;2023-08-06T01:56:37;15.60;99.90
6379;DHT22;3222;48.858;10.128;2023-08-06T01:59:03;15.50;99.90
6379;DHT22;3222;48.858;10.128;2023-08-06T02:01:28;15.50;99.90
6379;DHT22;3222;48.858;10.128;2023-08-06T02:03:54;15.50;99.90
6379;DHT22;3222;48.858;10.128;2023-08-06T02:06:20;15.50;99.90
6379;DHT22;3222;48.858;10.128;2023-08-06T02:08:46;15.40;99.90
6379;DHT22;3222;48.858;10.128;2023-08-06T02:11:14;15.50;99.90
6379;DHT22;3222;48.858;10.128;2023-08-06T02:13:40;15.50;99.90
6379;DHT22;3222;48.858;10.128;2023-08-06T02:16:09;15.50;99.90
6379;DHT22;3222;48.858;10.128;2023-08-06T02:18:35;15.40;99.90
6379;DHT22;3222;48.858;10.128;2023-08-06T02:21:00;15.50;99.90
6379;DHT22;3222;48.858;10.128;2023-08-06T02:23:28;15.40;99.90
6379;DHT22;3222;48.858;10.128;2023-08-06T02:26:01;15.40;99.90
6379;DHT22;3222;48.858;10.128;2023-08-06T02:28:28;15.40;99.90
6379;DHT22;3222;48.858;10.128;2023-08-06T02:30:54;15.40;99.90
6379;DHT22;3222;48.858;10.128;2023-08-06T02:33:19;15.40;99.90
6379;DHT22;3222;48.858;10.128;2023-08-06T02:35:45;15.40;99.90
6379;DHT22;3222;48.858;10.128;2023-08-06T02:38:10;15.40;99.90
6379;DHT22;3222;48.858;10.128;2023-08-06T02:40:36;15.40;99.90
6379;DHT22;3222;48.858;10.128;2023-08-06T02:43:02;15.50;99.90
6379;DHT22;3222;48.858;10.128;2023-08-06T02:45:29;15.50;99.90
6379;DHT22;3222;48.858;10.128;2023-08-06T02:47:54;15.40;99.90
6379;DHT22;3222;48.858;10.128;2023-08-06T02:50:20;15.40;99.90
6379;DHT22;3222;48.858;10.128;2023-08-06T02:52:46;15.40;99.90
6379;DHT22;3222;48.858;10.128;2023-08-06T02:55:11;15.40;99.90
6379;DHT22;3222;48.858;10.128;2023-08-06T02:57:41;15.40;99.90
6379;DHT22;3222;48.858;10.128;2023-08-06T03:00:07;15.40;99.90
6379;DHT22;3222;48.858;10.128;2023-08-06T03:02:33;15.40;99.90
6379;DHT22;3222;48.858;10.128;2023-08-06T03:05:18;15.50;99.90
6379;DHT22;3222;48.858;10.128;2023-08-06T03:07:46;15.60;99.90
6379;DHT22;3222;48.858;10.128;2023-08-06T03:10:25;15.50;99.90
6379;DHT22;3222;48.858;10.128;2023-08-06T03:12:53;15.40;99.90
6379;DHT22;3222;48.858;10.128;2023-08-06T03:15:20;15.40;99.90
6379;DHT22;3222;48.858;10.128;2023-08-06T03:17:46;15.30;99.90
6379;DHT22;3222;48.858;10.128;2023-08-06T03:20:12;15.50;99.90
6379;DHT22;3222;48.858;10.128;2023-08-06T03:22:39;15.40;99.90
6379;DHT22;3222;48.858;10.128;2023-08-06T03:25:06;15.40;99.90
6379;DHT22;3222;48.858;10.128;2023-08-06T03:27:33;15.50;99.90
6379;DHT22;3222;48.858;10.128;2023-08-06T03:29:58;15.60;99.90
6379;DHT22;3222;48.858;10.128;2023-08-06T03:32:26;15.50;99.90
6379;DHT22;3222;48.858;10.128;2023-08-06T03:34:53;15.50;99.90
6379;DHT22;3222;48.858;10.128;2023-08-06T03:37:20;15.60;99.90
6379;DHT22;3222;48.858;10.128;2023-08-06T03:39:46;15.50;99.90
6379;DHT22;3222;48.858;10.128;2023-08-06T03:42:12;15.60;99.90
6379;DHT22;3222;48.858;10.128;2023-08-06T03:44:37;15.60;99.90
6379;DHT22;3222;48.858;10.128;2023-08-06T03:47:04;15.60;99.90
6379;DHT22;3222;48.858;10.128;2023-08-06T03:49:30;15.60;99.90
6379;DHT22;3222;48.858;10.128;2023-08-06T03:51:56;15.60;99.90
6379;DHT22;3222;48.858;10.128;2023-08-06T03:54:21;15.70;99.90
6379;DHT22;3222;48.858;10.128;2023-08-06T03:56:47;15.80;99.90
6379;DHT22;3222;48.858;10.128;2023-08-06T03:59:13;15.70;99.90
6379;DHT22;3222;48.858;10.128;2023-08-06T04:01:39;15.60;99.90
6379;DHT22;3222;48.858;10.128;2023-08-06T04:04:05;15.60;99.90
6379;DHT22;3222;48.858;10.128;2023-08-06T04:06:30;15.50;99.90
6379;DHT22;3222;48.858;10.128;2023-08-06T04:08:56;15.40;99.90
6379;DHT22;3222;48.858;10.128;2023-08-06T04:11:22;15.50;99.90
6379;DHT22;3222;48.858;10.128;2023-08-06T04:13:47;15.50;99.90
6379;DHT22;3222;48.858;10.128;2023-08-06T04:16:13;15.60;99.90
6379;DHT22;3222;48.858;10.128;2023-08-06T04:18:40;15.60;99.90
6379;DHT22;3222;48.858;10.128;2023-08-06T04:21:06;15.50;99.90
6379;DHT22;3222;48.858;10.128;2023-08-06T04:23:32;15.60;99.90
6379;DHT22;3222;48.858;10.128;2023-08-06T04:26:02;15.60;99.90
6379;DHT22;3222;48.858;10.128;2023-08-06T04:28:31;15.60;99.90
6379;DHT22;3222;48.858;10.128;2023-08-06T04:30:59;15.40;99.90
6379;DHT22;3222;48.858;10.128;2023-08-06T04:33:24;15.30;99.90
6379;DHT22;3222;48.858;10.128;2023-08-06T04:35:57;15.30;99.90
6379;DHT22;3222;48.858;10.128;2023-08-06T04:38:24;15.30;99.90
6379;DHT22;3222;48.858;10.128;2023-08-06T04:40:51;15.30;99.90
6379;DHT22;3222;48.858;10.128;2023-08-06T04:43:17;15.30;99.90
6379;DHT22;3222;48.858;10.128;2023-08-06T04:45:47;15.40;99.90
6379;DHT22;3222;48.858;10.128;2023-08-06T04:48:13;15.40;99.90
6379;DHT22;3222;48.858;10.128;2023-08-06T04:50:43;15.40;99.90
6379;DHT22;3222;48.858;10.128;2023-08-06T04:53:09;15.50;99.90
6379;DHT22;3222;48.858;10.128;2023-08-06T04:55:34;15.40;99.90
6379;DHT22;3222;48.858;10.128;2023-08-06T04:58:00;15.40;99.90
6379;DHT22;3222;48.858;10.128;2023-08-06T05:00:26;15.40;99.90
6379;DHT22;3222;48.858;10.128;2023-08-06T05:02:51;15.40;99.90
6379;DHT22;3222;48.858;10.128;2023-08-06T05:05:17;15.50;99.90
6379;DHT22;3222;48.858;10.128;2023-08-06T05:07:42;15.50;99.90
6379;DHT22;3222;48.858;10.128;2023-08-06T05:10:08;15.60;99.90
6379;DHT22;3222;48.858;10.128;2023-08-06T05:12:34;15.60;99.90
6379;DHT22;3222;48.858;10.128;2023-08-06T05:15:00;15.60;99.90
6379;DHT22;3222;48.858;10.128;2023-08-06T05:17:25;15.70;99.90
6379;DHT22;3222;48.858;10.128;2023-08-06T05:19:51;15.50;99.90
6379;DHT22;3222;48.858;10.128;2023-08-06T05:22:16;15.60;99.90
6379;DHT22;3222;48.858;10.128;2023-08-06T05:24:42;15.60;99.90
6379;DHT22;3222;48.858;10.128;2023-08-06T05:27:08;15.60;99.90
6379;DHT22;3222;48.858;10.128;2023-08-06T05:29:33;15.60;99.90
6379;DHT22;3222;48.858;10.128;2023-08-06T05:31:59;15.50;99.90
6379;DHT22;3222;48.858;10.128;2023-08-06T05:34:24;15.40;99.90
6379;DHT22;3222;48.858;10.128;2023-08-06T05:36:50;15.40;99.90
6379;DHT22;3222;48.858;10.128;2023-08-06T05:39:16;15.40;99.90
6379;DHT22;3222;48.858;10.128;2023-08-06T05:41:41;15.50;99.90
6379;DHT22;3222;48.858;10.128;2023-08-06T05:44:07;15.50;99.90
6379;DHT22;3222;48.858;10.128;2023-08-06T05:46:33;15.50;99.90
6379;DHT22;3222;48.858;10.128;2023-08-06T05:48:58;15.40;99.90
6379;DHT22;3222;48.858;10.128;2023-08-06T05:51:26;15.50;99.90
6379;DHT22;3222;48.858;10.128;2023-08-06T05:53:52;15.50;99.90
6379;DHT22;3222;48.858;10.128;2023-08-06T05:56:17;15.40;99.90
6379;DHT22;3222;48.858;10.128;2023-08-06T05:58:43;15.40;99.90
6379;DHT22;3222;48.858;10.128;2023-08-06T06:01:09;15.30;99.90
6379;DHT22;3222;48.858;10.128;2023-08-06T06:03:34;15.20;99.90
6379;DHT22;3222;48.858;10.128;2023-08-06T06:06:01;15.30;99.90
6379;DHT22;3222;48.858;10.128;2023-08-06T06:08:27;15.30;99.90
6379;DHT22;3222;48.858;10.128;2023-08-06T06:10:52;15.20;99.90
6379;DHT22;3222;48.858;10.128;2023-08-06T06:13:18;15.20;99.90
6379;DHT22;3222;48.858;10.128;2023-08-06T06:15:44;15.30;99.90
6379;DHT22;3222;48.858;10.128;2023-08-06T06:18:11;15.30;99.90
6379;DHT22;3222;48.858;10.128;2023-08-06T06:20:37;15.40;99.90
6379;DHT22;3222;48.858;10.128;2023-08-06T06:23:02;15.40;99.90
6379;DHT22;3222;48.858;10.128;2023-08-06T06:25:28;15.40;99.90
6379;DHT22;3222;48.858;10.128;2023-08-06T06:27:53;15.40;99.90
6379;DHT22;3222;48.858;10.128;2023-08-06T06:30:19;15.40;99.90
6379;DHT22;3222;48.858;10.128;2023-08-06T06:32:45;15.40;99.90
6379;DHT22;3222;48.858;10.128;2023-08-06T06:35:12;15.30;99.90
6379;DHT22;3222;48.858;10.128;2023-08-06T06:37:37;15.30;99.90
6379;DHT22;3222;48.858;10.128;2023-08-06T06:40:03;15.30;99.90
6379;DHT22;3222;48.858;10.128;2023-08-06T06:42:29;15.40;99.90
6379;DHT22;3222;48.858;10.128;2023-08-06T06:44:59;15.30;99.90
6379;DHT22;3222;48.858;10.128;2023-08-06T06:47:25;15.30;99.90
6379;DHT22;3222;48.858;10.128;2023-08-06T06:49:51;15.30;99.90
6379;DHT22;3222;48.858;10.128;2023-08-06T06:52:16;15.30;99.90
6379;DHT22;3222;48.858;10.128;2023-08-06T06:54:42;15.30;99.90
6379;DHT22;3222;48.858;10.128;2023-08-06T06:57:07;15.30;99.90
6379;DHT22;3222;48.858;10.128;2023-08-06T06:59:33;15.30;99.90
6379;DHT22;3222;48.858;10.128;2023-08-06T07:01:59;15.20;99.90
6379;DHT22;3222;48.858;10.128;2023-08-06T07:04:24;15.30;99.90
6379;DHT22;3222;48.858;10.128;2023-08-06T07:06:50;15.30;99.90
6379;DHT22;3222;48.858;10.128;2023-08-06T07:09:17;15.30;99.90
6379;DHT22;3222;48.858;10.128;2023-08-06T07:11:43;15.30;99.90
6379;DHT22;3222;48.858;10.128;2023-08-06T07:14:09;15.30;99.90
6379;DHT22;3222;48.858;10.128;2023-08-06T07:16:35;15.30;99.90
6379;DHT22;3222;48.858;10.128;2023-08-06T07:19:00;15.20;99.90
6379;DHT22;3222;48.858;10.128;2023-08-06T07:21:26;15.10;99.90
6379;DHT22;3222;48.858;10.128;2023-08-06T07:23:52;15.20;99.90
6379;DHT22;3222;48.858;10.128;2023-08-06T07:26:17;15.30;99.90
6379;DHT22;3222;48.858;10.128;2023-08-06T07:28:43;15.30;99.90
6379;DHT22;3222;48.858;10.128;2023-08-06T07:31:10;15.30;99.90
6379;DHT22;3222;48.858;10.128;2023-08-06T07:33:35;15.40;99.90
6379;DHT22;3222;48.858;10.128;2023-08-06T07:36:08;15.40;99.90
6379;DHT22;3222;48.858;10.128;2023-08-06T07:38:34;15.30;99.90
6379;DHT22;3222;48.858;10.128;2023-08-06T07:41:02;15.30;99.90
6379;DHT22;3222;48.858;10.128;2023-08-06T07:43:27;15.30;99.90
6379;DHT22;3222;48.858;10.128;2023-08-06T07:45:53;15.30;99.90
6379;DHT22;3222;48.858;10.128;2023-08-06T07:48:19;15.30;99.90
6379;DHT22;3222;48.858;10.128;2023-08-06T07:50:44;15.30;99.90
6379;DHT22;3222;48.858;10.128;2023-08-06T07:53:15;15.30;99.90
6379;DHT22;3222;48.858;10.128;2023-08-06T07:55:41;15.30;99.90
6379;DHT22;3222;48.858;10.128;2023-08-06T07:58:07;15.30;99.90
6379;DHT22;3222;48.858;10.128;2023-08-06T08:00:33;15.30;99.90
6379;DHT22;3222;48.858;10.128;2023-08-06T08:02:59;15.30;99.90
6379;DHT22;3222;48.858;10.128;2023-08-06T08:05:24;15.30;99.90
6379;DHT22;3222;48.858;10.128;2023-08-06T08:07:50;15.30;99.90
6379;DHT22;3222;48.858;10.128;2023-08-06T08:10:15;15.30;99.90
6379;DHT22;3222;48.858;10.128;2023-08-06T08:12:41;15.30;99.90
6379;DHT22;3222;48.858;10.128;2023-08-06T08:15:08;15.30;99.90
6379;DHT22;3222;48.858;10.128;2023-08-06T08:17:33;15.20;99.90
6379;DHT22;3222;48.858;10.128;2023-08-06T08:20:00;15.30;99.90
6379;DHT22;3222;48.858;10.128;2023-08-06T08:22:25;15.20;99.90
6379;DHT22;3222;48.858;10.128;2023-08-06T08:24:51;15.20;99.90
6379;DHT22;3222;48.858;10.128;2023-08-06T08:27:17;15.20;99.90
6379;DHT22;3222;48.858;10.128;2023-08-06T08:29:42;15.20;99.90
6379;DHT22;3222;48.858;10.128;2023-08-06T08:32:08;15.20;99.90
6379;DHT22;3222;48.858;10.128;2023-08-06T08:34:33;15.20;99.90
6379;DHT22;3222;48.858;10.128;2023-08-06T08:36:59;15.20;99.90
6379;DHT22;3222;48.858;10.128;2023-08-06T08:39:25;15.20;99.90
6379;DHT22;3222;48.858;10.128;2023-08-06T08:41:50;15.20;99.90
6379;DHT22;3222;48.858;10.128;2023-08-06T08:44:16;15.10;99.90
6379;DHT22;3222;48.858;10.128;2023-08-06T08:46:43;15.10;99.90
6379;DHT22;3222;48.858;10.128;2023-08-06T08:49:10;15.10;99.90
6379;DHT22;3222;48.858;10.128;2023-08-06T08:51:36;15.10;99.90
6379;DHT22;3222;48.858;10.128;2023-08-06T08:54:07;15.10;99.90
6379;DHT22;3222;48.858;10.128;2023-08-06T08:56:33;15.10;99.90
6379;DHT22;3222;48.858;10.128;2023-08-06T08:58:59;15.10;99.90
6379;DHT22;3222;48.858;10.128;2023-08-06T09:01:25;15.10;99.90
6379;DHT22;3222;48.858;10.128;2023-08-06T09:03:51;15.10;99.90
6379;DHT22;3222;48.858;10.128;2023-08-06T09:06:19;15.00;99.90
6379;DHT22;3222;48.858;10.128;2023-08-06T09:09:01;15.10;99.90
6379;DHT22;3222;48.858;10.128;2023-08-06T09:11:28;15.10;99.90
6379;DHT22;3222;48.858;10.128;2023-08-06T09:13:57;15.10;99.90
6379;DHT22;3222;48.858;10.128;2023-08-06T09:16:23;15.20;99.90
6379;DHT22;3222;48.858;10.128;2023-08-06T09:18:49;15.10;99.90
6379;DHT22;3222;48.858;10.128;2023-08-06T09:21:15;15.10;99.90
6379;DHT22;3222;48.858;10.128;2023-08-06T09:23:43;15.10;99.90
6379;DHT22;3222;48.858;10.128;2023-08-06T09:26:12;15.20;99.90
6379;DHT22;3222;48.858;10.128;2023-08-06T09:28:38;15.20;99.90
6379;DHT22;3222;48.858;10.128;2023-08-06T09:31:04;15.20;99.90
6379;DHT22;3222;48.858;10.128;2023-08-06T09:33:30;15.20;99.90
6379;DHT22;3222;48.858;10.128;2023-08-06T09:35:56;15.20;99.90
6379;DHT22;3222;48.858;10.128;2023-08-06T09:38:21;15.10;99.90
6379;DHT22;3222;48.858;10.128;2023-08-06T09:40:47;15.20;99.90
6379;DHT22;3222;48.858;10.128;2023-08-06T09:43:12;15.10;99.90
6379;DHT22;3222;48.858;10.128;2023-08-06T09:45:39;15.10;99.90
6379;DHT22;3222;48.858;10.128;2023-08-06T09:48:08;15.20;99.90
6379;DHT22;3222;48.858;10.128;2023-08-06T09:50:36;15.30;99.90
6379;DHT22;3222;48.858;10.128;2023-08-06T09:53:07;15.30;99.90
6379;DHT22;3222;48.858;10.128;2023-08-06T09:55:34;15.30;99.90
6379;DHT22;3222;48.858;10.128;2023-08-06T09:58:00;15.20;99.90
6379;DHT22;3222;48.858;10.128;2023-08-06T10:00:26;15.30;99.90
6379;DHT22;3222;48.858;10.128;2023-08-06T10:02:53;15.20;99.90
6379;DHT22;3222;48.858;10.128;2023-08-06T10:05:22;15.20;99.90
6379;DHT22;3222;48.858;10.128;2023-08-06T10:07:49;15.20;99.90
6379;DHT22;3222;48.858;10.128;2023-08-06T10:10:16;15.30;99.90
6379;DHT22;3222;48.858;10.128;2023-08-06T10:12:47;15.20;99.90
6379;DHT22;3222;48.858;10.128;2023-08-06T10:15:16;15.30;99.90
6379;DHT22;3222;48.858;10.128;2023-08-06T10:17:43;15.30;99.90
6379;DHT22;3222;48.858;10.128;2023-08-06T10:20:11;15.30;99.90
6379;DHT22;3222;48.858;10.128;2023-08-06T10:22:42;15.30;99.90
6379;DHT22;3222;48.858;10.128;2023-08-06T10:25:09;15.30;99.90
6379;DHT22;3222;48.858;10.128;2023-08-06T10:27:53;15.30;99.90
6379;DHT22;3222;48.858;10.128;2023-08-06T10:30:32;15.30;99.90
6379;DHT22;3222;48.858;10.128;2023-08-06T10:33:03;15.20;99.90
6379;DHT22;3222;48.858;10.128;2023-08-06T10:35:40;15.30;99.90
6379;DHT22;3222;48.858;10.128;2023-08-06T10:38:19;15.30;99.90
6379;DHT22;3222;48.858;10.128;2023-08-06T10:46:08;15.20;99.90
6379;DHT22;3222;48.858;10.128;2023-08-06T10:48:43;15.20;99.90
6379;DHT22;3222;48.858;10.128;2023-08-06T10:51:12;15.20;99.90
6379;DHT22;3222;48.858;10.128;2023-08-06T10:53:42;15.20;99.90
6379;DHT22;3222;48.858;10.128;2023-08-06T10:56:17;15.30;99.90
6379;DHT22;3222;48.858;10.128;2023-08-06T10:58:44;15.30;99.90
6379;DHT22;3222;48.858;10.128;2023-08-06T11:01:10;15.30;99.90
6379;DHT22;3222;48.858;10.128;2023-08-06T11:03:37;15.20;99.90
6379;DHT22;3222;48.858;10.128;2023-08-06T11:06:03;15.30;99.90
6379;DHT22;3222;48.858;10.128;2023-08-06T11:08:32;15.30;99.90
6379;DHT22;3222;48.858;10.128;2023-08-06T11:11:11;15.30;99.90
6379;DHT22;3222;48.858;10.128;2023-08-06T11:13:39;15.40;99.90
6379;DHT22;3222;48.858;10.128;2023-08-06T11:16:05;15.30;99.90
6379;DHT22;3222;48.858;10.128;2023-08-06T11:18:32;15.40;99.90
6379;DHT22;3222;48.858;10.128;2023-08-06T11:21:01;15.40;99.90
6379;DHT22;3222;48.858;10.128;2023-08-06T11:23:28;15.30;99.90
6379;DHT22;3222;48.858;10.128;2023-08-06T11:25:56;15.30;99.90
6379;DHT22;3222;48.858;10.128;2023-08-06T11:28:23;15.30;99.90
6379;DHT22;3222;48.858;10.128;2023-08-06T11:30:49;15.30;99.90
6379;DHT22;3222;48.858;10.128;2023-08-06T11:33:26;15.20;99.90
6379;DHT22;3222;48.858;10.128;2023-08-06T11:35:54;15.30;99.90
6379;DHT22;3222;48.858;10.128;2023-08-06T11:38:19;15.30;99.90
6379;DHT22;3222;48.858;10.128;2023-08-06T11:40:45;15.30;99.90
6379;DHT22;3222;48.858;10.128;2023-08-06T11:43:12;15.30;99.90
6379;DHT22;3222;48.858;10.128;2023-08-06T11:45:38;15.30;99.90
6379;DHT22;3222;48.858;10.128;2023-08-06T11:48:04;15.30;99.90
6379;DHT22;3222;48.858;10.128;2023-08-06T11:50:30;15.30;99.90
6379;DHT22;3222;48.858;10.128;2023-08-06T11:52:59;15.30;99.90
6379;DHT22;3222;48.858;10.128;2023-08-06T11:55:26;15.30;99.90
6379;DHT22;3222;48.858;10.128;2023-08-06T11:57:54;15.20;99.90
6379;DHT22;3222;48.858;10.128;2023-08-06T12:00:19;15.30;99.90
6379;DHT22;3222;48.858;10.128;2023-08-06T12:02:48;15.30;99.90
6379;DHT22;3222;48.858;10.128;2023-08-06T12:05:15;15.20;99.90
6379;DHT22;3222;48.858;10.128;2023-08-06T12:07:52;15.20;99.90
6379;DHT22;3222;48.858;10.128;2023-08-06T12:10:19;15.20;99.90
6379;DHT22;3222;48.858;10.128;2023-08-06T12:12:46;15.20;99.90
6379;DHT22;3222;48.858;10.128;2023-08-06T12:15:12;15.20;99.90
6379;DHT22;3222;48.858;10.128;2023-08-06T12:17:38;15.20;99.90
6379;DHT22;3222;48.858;10.128;2023-08-06T12:20:05;15.20;99.90
6379;DHT22;3222;48.858;10.128;2023-08-06T12:22:31;15.20;99.90
6379;DHT22;3222;48.858;10.128;2023-08-06T12:25:04;15.20;99.90
6379;DHT22;3222;48.858;10.128;2023-08-06T12:27:34;15.20;99.90
6379;DHT22;3222;48.858;10.128;2023-08-06T12:30:00;15.20;99.90
6379;DHT22;3222;48.858;10.128;2023-08-06T12:32:26;15.10;99.90
6379;DHT22;3222;48.858;10.128;2023-08-06T12:34:51;15.10;99.90
6379;DHT22;3222;48.858;10.128;2023-08-06T12:37:17;15.10;99.90
6379;DHT22;3222;48.858;10.128;2023-08-06T12:39:43;15.10;99.90
6379;DHT22;3222;48.858;10.128;2023-08-06T12:42:08;15.10;99.90
6379;DHT22;3222;48.858;10.128;2023-08-06T12:44:35;15.10;99.90
6379;DHT22;3222;48.858;10.128;2023-08-06T12:47:01;15.10;99.90
6379;DHT22;3222;48.858;10.128;2023-08-06T12:49:26;15.10;99.90
6379;DHT22;3222;48.858;10.128;2023-08-06T12:51:53;15.10;99.90
6379;DHT22;3222;48.858;10.128;2023-08-06T12:54:20;15.10;99.90
6379;DHT22;3222;48.858;10.128;2023-08-06T12:56:47;15.10;99.90
6379;DHT22;3222;48.858;10.128;2023-08-06T12:59:14;15.00;99.90
6379;DHT22;3222;48.858;10.128;2023-08-06T13:01:41;15.00;99.90
6379;DHT22;3222;48.858;10.128;2023-08-06T13:04:07;15.00;99.90
6379;DHT22;3222;48.858;10.128;2023-08-06T13:06:32;15.00;99.90
6379;DHT22;3222;48.858;10.128;2023-08-06T13:09:06;14.90;99.90
6379;DHT22;3222;48.858;10.128;2023-08-06T13:11:32;14.80;99.90
6379;DHT22;3222;48.858;10.128;2023-08-06T13:14:06;14.90;99.90
6379;DHT22;3222;48.858;10.128;2023-08-06T13:16:35;14.80;99.90
6379;DHT22;3222;48.858;10.128;2023-08-06T13:19:02;14.80;99.90
6379;DHT22;3222;48.858;10.128;2023-08-06T13:21:35;14.80;99.90
6379;DHT22;3222;48.858;10.128;2023-08-06T13:24:01;14.80;99.90
6379;DHT22;3222;48.858;10.128;2023-08-06T13:26:29;14.80;99.90
6379;DHT22;3222;48.858;10.128;2023-08-06T13:28:58;14.80;99.90
6379;DHT22;3222;48.858;10.128;2023-08-06T13:31:25;14.80;99.90
6379;DHT22;3222;48.858;10.128;2023-08-06T13:33:51;14.80;99.90
6379;DHT22;3222;48.858;10.128;2023-08-06T13:36:17;14.80;99.90
6379;DHT22;3222;48.858;10.128;2023-08-06T13:38:43;14.80;99.90
6379;DHT22;3222;48.858;10.128;2023-08-06T13:41:08;14.80;99.90
6379;DHT22;3222;48.858;10.128;2023-08-06T13:43:34;14.70;99.90
6379;DHT22;3222;48.858;10.128;2023-08-06T13:45:59;14.70;99.90
6379;DHT22;3222;48.858;10.128;2023-08-06T13:48:25;14.70;99.90
6379;DHT22;3222;48.858;10.128;2023-08-06T13:50:51;14.70;99.90
6379;DHT22;3222;48.858;10.128;2023-08-06T13:53:17;14.70;99.90
6379;DHT22;3222;48.858;10.128;2023-08-06T13:55:42;14.70;99.90
6379;DHT22;3222;48.858;10.128;2023-08-06T13:58:08;14.70;99.90
6379;DHT22;3222;48.858;10.128;2023-08-06T14:00:35;14.70;99.90
6379;DHT22;3222;48.858;10.128;2023-08-06T14:03:01;14.70;99.90
6379;DHT22;3222;48.858;10.128;2023-08-06T14:05:27;14.70;99.90
6379;DHT22;3222;48.858;10.128;2023-08-06T14:07:52;14.70;99.90
6379;DHT22;3222;48.858;10.128;2023-08-06T14:10:18;14.70;99.90
6379;DHT22;3222;48.858;10.128;2023-08-06T14:12:44;14.70;99.90
6379;DHT22;3222;48.858;10.128;2023-08-06T14:15:10;14.70;99.90
6379;DHT22;3222;48.858;10.128;2023-08-06T14:17:36;14.70;99.90
6379;DHT22;3222;48.858;10.128;2023-08-06T14:20:03;14.70;99.90
6379;DHT22;3222;48.858;10.128;2023-08-06T14:22:30;14.70;99.90
6379;DHT22;3222;48.858;10.128;2023-08-06T14:24:57;14.70;99.90
6379;DHT22;3222;48.858;10.128;2023-08-06T14:27:23;14.60;99.90
6379;DHT22;3222;48.858;10.128;2023-08-06T14:29:49;14.60;99.90
6379;DHT22;3222;48.858;10.128;2023-08-06T14:32:14;14.70;99.90
6379;DHT22;3222;48.858;10.128;2023-08-06T14:34:43;14.70;99.90
6379;DHT22;3222;48.858;10.128;2023-08-06T14:37:10;14.70;99.90
6379;DHT22;3222;48.858;10.128;2023-08-06T14:39:35;14.60;99.90
6379;DHT22;3222;48.858;10.128;2023-08-06T14:42:01;14.70;99.90
6379;DHT22;3222;48.858;10.128;2023-08-06T14:44:27;14.70;99.90
6379;DHT22;3222;48.858;10.128;2023-08-06T14:46:53;14.70;99.90
6379;DHT22;3222;48.858;10.128;2023-08-06T14:49:19;14.80;99.90
6379;DHT22;3222;48.858;10.128;2023-08-06T14:51:45;14.80;99.90
6379;DHT22;3222;48.858;10.128;2023-08-06T14:54:11;14.80;99.90
6379;DHT22;3222;48.858;10.128;2023-08-06T14:56:36;14.70;99.90
6379;DHT22;3222;48.858;10.128;2023-08-06T14:59:02;14.70;99.90
6379;DHT22;3222;48.858;10.128;2023-08-06T15:01:28;14.70;99.90
6379;DHT22;3222;48.858;10.128;2023-08-06T15:03:53;14.70;99.90
6379;DHT22;3222;48.858;10.128;2023-08-06T15:06:19;14.70;99.90
6379;DHT22;3222;48.858;10.128;2023-08-06T15:08:45;14.70;99.90
6379;DHT22;3222;48.858;10.128;2023-08-06T15:11:13;14.70;99.90
6379;DHT22;3222;48.858;10.128;2023-08-06T15:13:38;14.70;99.90
6379;DHT22;3222;48.858;10.128;2023-08-06T15:16:04;14.70;99.90
6379;DHT22;3222;48.858;10.128;2023-08-06T15:18:30;14.70;99.90
6379;DHT22;3222;48.858;10.128;2023-08-06T15:20:55;14.60;99.90
6379;DHT22;3222;48.858;10.128;2023-08-06T15:23:23;14.70;99.90
6379;DHT22;3222;48.858;10.128;2023-08-06T15:25:48;14.60;99.90
6379;DHT22;3222;48.858;10.128;2023-08-06T15:28:14;14.70;99.90
6379;DHT22;3222;48.858;10.128;2023-08-06T15:30:40;14.70;99.90
6379;DHT22;3222;48.858;10.128;2023-08-06T15:33:07;14.70;99.90
6379;DHT22;3222;48.858;10.128;2023-08-06T15:35:33;14.70;99.90
6379;DHT22;3222;48.858;10.128;2023-08-06T15:37:58;14.60;99.90
6379;DHT22;3222;48.858;10.128;2023-08-06T15:40:24;14.60;99.90
6379;DHT22;3222;48.858;10.128;2023-08-06T15:42:50;14.60;99.90
6379;DHT22;3222;48.858;10.128;2023-08-06T15:45:16;14.60;99.90
6379;DHT22;3222;48.858;10.128;2023-08-06T15:47:41;14.60;99.90
6379;DHT22;3222;48.858;10.128;2023-08-06T15:50:08;14.60;99.90